Latest Weather Observations for Parkes Airport

IDN60801

Issued at 6:05 pm EDT Monday 2 March 2015 (issued every 30 minutes, with the page automatically refreshed every 10 minutes)

About weather observations | Map of weather stations | Latest weather observations for NSW | Other Formats
Station Details ID: 065068 Name: PARKES AIRPORT AWS Lat: -33.13 Lon: 148.24 Height: 323.3 m
Data from the previous 72 hours. | See also: Recent months at Parkes Airport
Date/Time
EDT
Temp
°C
App
Temp
°C
Dew
Point
Rel
Hum
%
Delta-T
°C
Wind Press
QNH
hPa
Press
MSL
hPa
Rain
since 9 am
mm
Dir
 
Spd
km/h
Gust
km/h
Spd
kts
Gust
kts
02/06:00pm 32.3 31.3 10.9 27 12.6 NNW 7 15 4 8 1011.5 1010.1 0.0
02/05:30pm 32.1 30.4 11.3 28 12.3 NE 11 20 6 11 1011.4 1010.0 0.0
02/05:00pm 32.0 30.7 10.1 26 12.7 NNE 7 17 4 9 1011.6 1010.2 0.0
02/04:30pm 33.3 32.2 11.8 27 12.9 NNW 9 17 5 9 1011.7 1010.4 0.0
02/04:00pm 32.8 30.4 11.3 27 12.7 NNW 15 22 8 12 1011.9 1010.6 0.0
02/03:30pm 33.2 31.1 11.1 26 13.1 NW 13 20 7 11 1012.3 1011.0 0.0
02/03:00pm 32.3 29.0 11.5 28 12.3 N 20 30 11 16 1012.6 1011.3 0.0
02/02:30pm 31.7 29.8 13.0 32 11.3 N 15 28 8 15 1013.2 1011.9 0.0
02/02:00pm 32.0 31.5 13.7 33 11.2 N 9 24 5 13 1013.5 1012.2 0.0
02/01:30pm 31.1 28.4 12.9 32 11.0 N 19 26 10 14 1014.1 1012.7 0.0
02/01:00pm 30.1 29.8 13.4 36 10.1 ENE 7 20 4 11 1014.6 1013.3 0.0
02/12:30pm 29.6 28.0 13.8 38 9.6 NE 15 24 8 13 1015.0 1013.7 0.0
02/12:00pm 28.9 27.4 13.2 38 9.4 ENE 13 26 7 14 1015.3 1014.0 0.0
02/11:30am 27.7 25.0 12.9 40 8.8 ENE 19 30 10 16 1015.6 1014.3 0.0
02/11:00am 27.0 24.1 13.0 42 8.3 ENE 20 30 11 16 1016.1 1014.8 0.0
02/10:30am 25.6 22.2 12.4 43 7.7 ENE 22 30 12 16 1016.3 1015.0 0.0
02/10:00am 24.1 19.0 11.8 46 7.1 ENE 30 37 16 20 1016.1 1014.8 0.0
02/09:30am 23.3 18.9 11.7 48 6.6 ENE 26 35 14 19 1016.0 1014.7 0.0
02/09:00am 22.1 19.0 11.5 51 6.0 ENE 19 26 10 14 1016.0 1014.7 0.0
02/08:30am 20.8 17.0 11.2 54 5.4 ENE 22 30 12 16 1015.4 1014.1 0.0
02/08:00am 19.5 16.7 11.3 59 4.6 ENE 17 20 9 11 1015.5 1014.2 0.0
02/07:30am 18.2 16.1 11.3 64 3.8 ENE 13 19 7 10 1015.5 1014.2 0.0
02/07:00am 16.8 14.7 11.1 69 3.1 E 13 19 7 10 1015.2 1013.9 0.0
02/06:30am 17.0 15.7 11.1 68 3.2 E 9 17 5 9 1014.9 1013.6 0.0
02/06:00am 16.8 15.4 10.9 68 3.2 NE 9 13 5 7 1014.5 1013.2 0.0
02/05:30am 17.7 14.9 11.3 66 3.5 E 17 22 9 12 1014.2 1012.8 0.0
02/05:00am 17.6 15.6 11.6 68 3.3 E 13 15 7 8 1014.3 1012.9 0.0
02/04:30am 18.4 16.7 12.4 68 3.4 ENE 13 20 7 11 1014.2 1012.8 0.0
02/04:00am 19.1 16.7 12.8 67 3.6 ENE 17 24 9 13 1014.1 1012.7 0.0
02/03:30am 19.6 17.2 13.8 69 3.4 ENE 19 26 10 14 1013.9 1012.6 0.0
02/03:00am 18.4 16.2 13.3 72 2.9 E 17 24 9 13 1013.7 1012.4 0.0
02/02:30am 15.0 12.5 4.7 50 4.9 NNE 7 11 4 6 1013.3 1012.0 0.0
02/02:00am 15.1 11.4 4.2 48 5.1 E 13 17 7 9 1013.2 1011.9 0.0
02/01:30am 13.8 9.8 3.0 48 4.9 ENE 13 15 7 8 1013.2 1011.9 0.0
02/01:00am 14.6 12.6 2.5 44 5.5 E 2 7 1 4 1012.9 1011.6 0.0
02/12:30am 14.7 11.4 2.3 43 5.6 NNE 9 11 5 6 1012.8 1011.5 0.0
02/12:00am 16.0 12.4 0.6 35 6.8 ENE 9 15 5 8 1012.5 1011.2 0.0
 
Date/Time
EDT
Temp
°C
App
Temp
°C
Dew
Point
Rel
Hum
%
Delta-T
°C
Wind Press
QNH
hPa
Press
MSL
hPa
Rain
since 9 am
mm
Dir
 
Spd
km/h
Gust
km/h
Spd
kts
Gust
kts
01/11:30pm 18.4 14.2 1.4 32 7.8 S 13 15 7 8 1012.5 1011.2 0.0
01/11:00pm 19.7 16.2 1.2 29 8.5 SSW 9 13 5 7 1012.7 1011.4 0.0
01/10:30pm 19.6 15.6 0.6 28 8.6 SSW 11 13 6 7 1012.8 1011.5 0.0
01/10:00pm 21.9 16.8 1.0 25 9.7 SSW 17 20 9 11 1012.6 1011.3 0.0
01/09:30pm 23.2 17.7 0.9 23 10.5 SSW 19 22 10 12 1012.2 1010.9 0.0
01/09:00pm 24.4 18.6 2.5 24 10.7 SSW 22 28 12 15 1011.6 1010.2 0.0
01/08:30pm 25.0 19.8 3.6 25 10.7 SSW 20 24 11 13 1011.0 1009.6 0.0
01/08:00pm 26.1 20.7 4.6 25 11.0 SSW 22 28 12 15 1010.4 1009.1 0.0
01/07:30pm 27.5 20.2 2.6 20 12.4 SSW 30 41 16 22 1009.9 1008.6 0.0
01/07:00pm 28.5 21.2 5.4 23 12.2 SSW 33 44 18 24 1009.5 1008.2 0.0
01/06:30pm 29.4 22.6 7.9 26 11.9 SSW 33 43 18 23 1009.2 1007.9 0.0
01/06:00pm 30.0 22.9 11.0 31 11.1 SW 39 50 21 27 1008.5 1007.1 0.0
01/05:43pm 30.9 24.5 13.2 34 10.7 SSW 39 67 21 36 1007.7 1006.3 0.0
01/05:30pm 30.8 24.2 13.6 35 10.5 SSW 41 56 22 30 1007.9 1006.5 0.0
01/05:26pm 31.2 25.3 13.5 34 10.8 SW 37 56 20 30 1007.8 1006.4 0.0
01/05:08pm 31.8 26.0 14.0 34 10.9 SW 37 52 20 28 1007.4 1006.1 0.0
01/05:00pm 32.6 27.7 13.8 32 11.6 SW 32 44 17 24 1007.3 1006.0 0.0
01/04:30pm 33.2 27.5 14.3 32 11.7 SW 37 50 20 27 1007.2 1005.9 0.0
01/04:00pm 33.0 26.6 13.1 30 12.1 SW 39 48 21 26 1007.1 1005.8 0.0
01/03:41pm 33.7 28.4 13.2 29 12.5 SW 33 54 18 29 1007.0 1005.7 0.0
01/03:30pm 33.9 27.4 12.8 28 12.8 SW 39 52 21 28 1007.2 1005.9 0.0
01/03:28pm 34.5 28.1 13.3 27 13.0 SW 39 54 21 29 1007.1 1005.8 0.0
01/03:25pm 33.7 26.9 13.2 29 12.5 SW 41 54 22 29 1007.1 1005.8 0.0
01/03:04pm 34.2 27.6 12.5 27 13.2 SW 39 59 21 32 1007.0 1005.7 0.0
01/03:00pm 35.5 29.3 12.5 25 14.0 SW 37 48 20 26 1007.2 1005.9 0.0
01/02:47pm 35.7 29.3 12.0 24 14.3 SW 37 52 20 28 1007.1 1005.8 0.0
01/02:30pm 35.7 30.2 12.0 24 14.3 WSW 32 52 17 28 1006.9 1005.6 0.0
01/02:00pm 34.6 31.3 16.0 33 11.9 WNW 28 56 15 30 1007.1 1005.8 0.0
01/01:30pm 34.6 32.6 17.3 35 11.2 WNW 24 43 13 23 1007.6 1006.2 0.0
01/01:00pm 34.7 31.8 17.0 35 11.5 WNW 28 41 15 22 1008.2 1006.8 0.0
01/12:30pm 32.7 30.5 16.9 38 10.2 NW 24 41 13 22 1008.4 1007.0 0.0
01/12:00pm 33.2 31.4 17.8 40 10.1 NW 24 35 13 19 1008.7 1007.3 0.0
01/11:30am 32.4 30.2 17.8 41 9.5 NNW 26 35 14 19 1009.0 1007.7 0.0
01/11:00am 31.8 30.1 18.0 43 9.0 NNW 24 39 13 21 1009.0 1007.7 0.0
01/10:30am 30.7 27.7 17.7 45 8.4 NNW 30 37 16 20 1009.0 1007.2 0.0
01/10:00am 30.0 27.4 17.8 48 7.9 NNW 28 37 15 20 1009.1 1007.3 0.0
01/09:30am 29.6 26.1 17.4 47 7.8 NNW 32 41 17 22 1008.9 1007.1 0.0
01/09:00am 28.6 26.5 17.2 50 7.3 N 24 39 13 21 1008.3 1006.5 0.0
01/08:30am 27.0 24.0 16.9 54 6.4 N 28 39 15 21 1007.6 1005.8 0.0
01/08:00am 25.8 24.2 16.4 56 5.9 N 20 26 11 14 1007.8 1006.0 0.0
01/07:30am 23.9 22.3 15.1 58 5.3 NNE 17 20 9 11 1007.7 1005.9 0.0
01/07:00am 23.5 21.9 15.0 59 5.2 NNE 17 20 9 11 1007.3 1005.6 0.0
01/06:30am 23.2 21.7 14.2 57 5.4 NNE 15 19 8 10 1006.9 1005.1 0.0
01/06:00am 23.2 21.5 13.7 55 5.6 NNE 15 17 8 9 1006.6 1004.8 0.0
01/05:30am 23.6 21.5 13.5 53 6.0 NNE 17 20 9 11 1006.4 1004.6 0.0
01/05:00am 24.1 21.3 13.3 51 6.4 NNE 20 26 11 14 1006.1 1004.3 0.0
01/04:30am 24.5 21.2 12.8 48 6.8 NNE 22 30 12 16 1006.0 1004.2 0.0
01/04:00am 25.1 21.8 12.7 46 7.3 NNE 22 30 12 16 1006.1 1004.3 0.0
01/03:30am 25.3 21.5 12.5 45 7.5 NNE 24 35 13 19 1006.1 1004.3 0.0
01/03:00am 25.3 21.4 12.2 44 7.6 NNE 24 32 13 17 1006.2 1004.4 0.0
01/02:30am 25.7 22.5 11.8 42 8.0 N 20 28 11 15 1006.4 1004.6 0.0
01/02:00am 26.4 22.4 11.7 40 8.5 NNE 24 32 13 17 1006.7 1004.9 0.0
01/01:30am 26.5 23.3 11.8 40 8.5 NNE 20 30 11 16 1007.0 1005.2 0.0
01/01:00am 25.5 23.0 10.9 40 8.3 NNE 15 19 8 10 1007.2 1005.5 0.0
01/12:30am 23.9 21.8 9.9 41 7.8 NNE 11 13 6 7 1007.3 1005.6 0.0
01/12:00am 24.7 24.1 9.0 37 8.6 NE 2 9 1 5 1007.3 1005.6 0.0
 
Date/Time
EDT
Temp
°C
App
Temp
°C
Dew
Point
Rel
Hum
%
Delta-T
°C
Wind Press
QNH
hPa
Press
MSL
hPa
Rain
since 9 am
mm
Dir
 
Spd
km/h
Gust
km/h
Spd
kts
Gust
kts
28/11:30pm 25.2 25.1 9.5 37 8.7 CALM 0 6 0 3 1007.7 1005.9 0.0
28/11:00pm 24.1 22.6 9.3 39 8.2 ENE 7 9 4 5 1007.8 1006.0 0.0
28/10:30pm 24.2 22.7 8.6 37 8.5 NE 6 7 3 4 1008.0 1006.2 0.0
28/10:00pm 24.3 22.5 9.5 39 8.2 ENE 9 9 5 5 1007.9 1006.1 0.0
28/09:30pm 24.4 22.0 8.8 37 8.5 E 11 11 6 6 1007.8 1006.0 0.0
28/09:00pm 25.0 22.6 8.5 35 9.0 ENE 11 13 6 7 1007.3 1005.6 0.0
28/08:30pm 26.4 24.3 8.4 32 9.9 NNE 9 9 5 5 1007.0 1005.2 0.0
28/08:00pm 28.4 27.1 7.6 27 11.4 N 4 7 2 4 1006.8 1005.0 0.0
28/07:30pm 31.4 30.3 7.1 22 13.4 N 2 9 1 5 1006.6 1004.8 0.0
28/07:00pm 32.7 31.6 6.8 20 14.3 N 2 15 1 8 1006.3 1004.5 0.0
28/06:30pm 33.9 32.3 7.8 20 14.7 NW 6 9 3 5 1006.1 1004.3 0.0
28/06:00pm 34.0 31.0 7.9 20 14.8 NW 13 20 7 11 1006.2 1004.4 0.0
28/05:30pm 35.1 31.4 8.0 19 15.4 WNW 17 26 9 14 1006.1 1004.3 0.0
28/05:00pm 35.0 33.0 7.1 18 15.7 WSW 7 19 4 10 1006.2 1004.4 0.0
28/04:30pm 35.1 32.4 7.2 18 15.7 NNW 11 20 6 11 1006.5 1004.7 0.0
28/04:00pm 34.4 31.7 8.9 21 14.7 NW 13 20 7 11 1006.6 1004.8 0.0
28/03:30pm 33.5 31.6 7.5 20 14.6 SE 7 15 4 8 1006.8 1005.0 0.0
28/03:00pm 33.7 30.8 8.3 21 14.5 NNW 13 24 7 13 1007.4 1005.7 0.0
28/02:30pm 32.9 31.0 9.0 23 13.7 NW 9 17 5 9 1007.8 1006.0 0.0
28/02:00pm 33.6 31.4 10.9 25 13.4 E 13 24 7 13 1008.3 1006.5 0.0
28/01:30pm 32.8 31.0 10.8 26 12.9 NE 11 26 6 14 1008.8 1007.0 0.0
28/01:00pm 33.2 30.5 12.8 29 12.4 N 19 28 10 15 1009.2 1007.4 0.0
28/12:30pm 32.0 29.4 13.7 33 11.2 N 20 32 11 17 1009.7 1007.9 0.0
28/12:00pm 30.5 27.9 15.0 39 9.6 N 22 33 12 18 1010.0 1008.3 0.0
28/11:30am 30.4 27.3 15.7 41 9.2 N 26 35 14 19 1010.3 1008.6 0.0
28/11:00am 28.5 25.3 15.4 45 8.1 N 26 35 14 19 1010.5 1008.8 0.0
28/10:30am 28.3 25.0 14.9 44 8.2 NNE 26 37 14 20 1010.4 1008.7 0.0
28/10:00am 27.0 23.6 14.7 47 7.5 NNE 26 35 14 19 1010.5 1008.8 0.0
28/09:30am 26.3 24.6 14.7 48 7.1 N 17 24 9 13 1010.4 1008.7 0.0
28/09:00am 25.4 24.0 14.5 51 6.6 NNE 15 19 8 10 1010.0 1008.3 0.0
28/08:30am 24.3 24.3 15.2 57 5.5 NE 9 13 5 7 1009.9 1008.2 0.0
28/08:00am 22.5 23.4 15.1 63 4.5 E 4 9 2 5 1010.0 1008.3 0.0
28/07:30am 21.9 21.4 14.8 64 4.2 E 11 15 6 8 1009.7 1007.9 0.0
28/07:00am 21.1 19.9 15.0 68 3.7 E 15 19 8 10 1009.6 1007.8 0.0
28/06:30am 21.7 20.2 15.3 67 3.9 ENE 17 20 9 11 1009.6 1007.8 0.0
28/06:00am 21.0 19.3 14.6 67 3.8 ENE 17 20 9 11 1009.3 1007.5 0.0
28/05:30am 21.6 19.6 15.0 66 4.0 ENE 19 22 10 12 1008.9 1007.1 0.0
28/05:00am 20.9 20.2 14.3 66 3.9 E 11 15 6 8 1008.8 1007.0 0.0
28/04:30am 20.4 19.8 13.6 65 4.0 E 9 13 5 7 1008.7 1006.9 0.0
28/04:00am 21.5 19.8 13.7 61 4.6 ENE 15 20 8 11 1008.6 1006.8 0.0
28/03:30am 22.6 21.0 13.9 58 5.1 NE 15 20 8 11 1008.7 1006.9 0.0
28/03:00am 22.3 21.0 13.6 58 5.1 ENE 13 17 7 9 1008.8 1007.0 0.0
28/02:30am 20.2 19.5 11.9 59 4.7 E 7 9 4 5 1008.9 1007.1 0.0
28/02:00am 20.5 18.2 10.6 53 5.5 NNE 13 17 7 9 1009.1 1007.3 0.0
28/01:30am 18.6 17.0 8.8 53 5.2 N 7 9 4 5 1009.4 1007.6 0.0
28/01:00am 18.6 15.4 8.6 52 5.3 NE 15 28 8 15 1009.5 1007.7 0.0
28/12:30am 19.3 17.2 8.3 49 5.8 NE 9 9 5 5 1009.2 1007.4 0.0
28/12:00am 18.6 16.0 7.7 49 5.7 NE 11 13 6 7 1009.3 1007.5 0.0
 
Date/Time
EDT
Temp
°C
App
Temp
°C
Dew
Point
Rel
Hum
%
Delta-T
°C
Wind Press
QNH
hPa
Press
MSL
hPa
Rain
since 9 am
mm
Dir
 
Spd
km/h
Gust
km/h
Spd
kts
Gust
kts
27/11:30pm 20.8 18.2 7.8 43 6.8 NE 11 13 6 7 1009.3 1007.5 0.0
27/11:00pm 20.6 18.0 7.9 44 6.7 ENE 11 13 6 7 1009.4 1007.6 0.0
27/10:30pm 20.6 18.1 6.5 40 7.2 NE 9 9 5 5 1009.3 1007.5 0.0
27/10:00pm 21.5 18.7 7.0 39 7.6 E 11 13 6 7 1009.3 1007.5 0.0
27/09:30pm 22.9 20.5 7.0 36 8.3 NE 9 11 5 6 1009.0 1007.2 0.0
27/09:00pm 23.0 20.6 5.4 32 9.0 SE 7 11 4 6 1008.8 1007.0 0.0
27/08:30pm 26.3 23.6 5.8 27 10.7 S 9 11 5 6 1008.3 1006.5 0.0
27/08:00pm 27.2 24.5 5.5 25 11.4 SSW 9 11 5 6 1007.8 1006.0 0.0
27/07:30pm 29.5 26.0 5.6 22 12.7 SSW 13 19 7 10 1007.4 1005.7 0.0
27/07:00pm 31.0 27.7 4.7 19 13.9 SW 11 17 6 9 1007.1 1005.4 0.0
27/06:30pm 31.6 28.2 5.9 20 13.9 SSW 13 17 7 9 1007.0 1005.2 0.0

Other Formats:

Comma delimited format used in spreadsheet applications
http://www.bom.gov.au/fwo/IDN60801/IDN60801.95717.axf

JavaScript Object Notation format (JSON) in row-major order
http://www.bom.gov.au/fwo/IDN60801/IDN60801.95717.json